createdAt,value
2018-12-16T00:00:52.783Z,92.52
2018-12-16T00:01:52.794Z,92.52
2018-12-16T00:02:52.802Z,92.05
2018-12-16T00:03:52.810Z,92.43
2018-12-16T00:04:53.180Z,92.05
2018-12-16T00:05:52.827Z,92.43
2018-12-16T00:06:52.830Z,92.52
2018-12-16T00:07:52.839Z,92.33
2018-12-16T00:08:52.847Z,92.71
2018-12-16T00:09:52.858Z,92.24
2018-12-16T00:10:52.859Z,92.24
2018-12-16T00:11:52.873Z,92.61
2018-12-16T00:12:52.875Z,92.33
2018-12-16T00:13:52.883Z,92.24
2018-12-16T00:14:52.892Z,92.52
2018-12-16T00:15:52.898Z,91.86
2018-12-16T00:16:52.906Z,91.86
2018-12-16T00:17:52.915Z,91.86
2018-12-16T00:18:52.922Z,91.96
2018-12-16T00:19:52.931Z,91.20
2018-12-16T00:20:52.935Z,91.58
2018-12-16T00:21:52.945Z,91.58
2018-12-16T00:22:52.959Z,91.58
2018-12-16T00:23:52.958Z,91.77
2018-12-16T00:24:52.972Z,91.29
2018-12-16T00:25:52.979Z,91.48
2018-12-16T00:26:53.121Z,91.48
2018-12-16T00:27:52.988Z,91.39
2018-12-16T00:28:52.996Z,91.67
2018-12-16T00:29:53.007Z,91.48
2018-12-16T00:30:53.011Z,91.77
2018-12-16T00:31:53.018Z,91.29
2018-12-16T00:32:53.029Z,91.01
2018-12-16T00:33:53.036Z,91.29
2018-12-16T00:34:53.043Z,91.77
2018-12-16T00:35:53.050Z,91.48
2018-12-16T00:36:53.060Z,91.67
2018-12-16T00:37:53.064Z,91.58
2018-12-16T00:38:53.071Z,91.29
2018-12-16T00:39:53.086Z,91.67
2018-12-16T00:40:53.090Z,91.29
2018-12-16T00:41:53.099Z,91.48
2018-12-16T00:42:53.106Z,91.77
2018-12-16T00:43:53.113Z,91.20
2018-12-16T00:44:53.123Z,91.29
2018-12-16T00:45:53.132Z,91.48
2018-12-16T00:46:53.137Z,91.48
2018-12-16T00:47:53.142Z,91.39
2018-12-16T00:48:53.155Z,91.67
2018-12-16T00:49:53.160Z,91.77
2018-12-16T00:50:53.167Z,91.67
2018-12-16T00:51:53.176Z,91.58
2018-12-16T00:52:53.181Z,91.01
2018-12-16T00:53:53.192Z,91.01
2018-12-16T00:54:53.200Z,91.29
2018-12-16T00:55:53.203Z,91.39
2018-12-16T00:56:53.218Z,91.29
2018-12-16T00:57:53.438Z,91.20
2018-12-16T00:58:53.230Z,91.39
2018-12-16T00:59:53.434Z,91.39
2018-12-16T01:00:53.241Z,91.62
2018-12-16T01:01:53.252Z,91.01
2018-12-16T01:02:53.257Z,91.58
2018-12-16T01:03:53.263Z,91.01
2018-12-16T01:04:53.278Z,91.48
2018-12-16T01:05:53.283Z,91.67
2018-12-16T01:06:53.287Z,91.43
2018-12-16T01:07:53.294Z,90.96
2018-12-16T01:08:53.306Z,91.72
2018-12-16T01:09:53.312Z,91.05
2018-12-16T01:10:53.317Z,91.15
2018-12-16T01:11:53.327Z,91.43
2018-12-16T01:12:53.332Z,91.62
2018-12-16T01:13:53.343Z,91.10
2018-12-16T01:14:53.347Z,91.34
2018-12-16T01:15:53.359Z,91.53
2018-12-16T01:16:53.371Z,91.15
2018-12-16T01:17:53.372Z,91.34
2018-12-16T01:18:53.378Z,91.62
2018-12-16T01:19:53.393Z,91.43
2018-12-16T01:20:53.398Z,91.15
2018-12-16T01:21:53.406Z,91.05
2018-12-16T01:22:53.414Z,91.05
2018-12-16T01:23:53.418Z,91.24
2018-12-16T01:24:53.428Z,91.53
2018-12-16T01:25:53.436Z,91.15
2018-12-16T01:26:53.442Z,91.05
2018-12-16T01:27:53.452Z,91.15
2018-12-16T01:28:53.457Z,91.72
2018-12-16T01:29:53.470Z,91.34
2018-12-16T01:30:53.473Z,90.96
2018-12-16T01:31:53.483Z,91.53
2018-12-16T01:32:53.491Z,91.01
2018-12-16T01:33:53.497Z,91.62
2018-12-16T01:34:53.509Z,91.62
2018-12-16T01:35:53.516Z,91.34
2018-12-16T01:36:53.519Z,91.43
2018-12-16T01:37:53.531Z,91.43
2018-12-16T01:38:53.536Z,91.62
2018-12-16T01:39:53.548Z,91.24
2018-12-16T01:40:53.552Z,90.86
2018-12-16T01:41:53.560Z,91.05
2018-12-16T01:42:53.618Z,90.86
2018-12-16T01:43:53.575Z,91.15
2018-12-16T01:44:53.586Z,91.15
2018-12-16T01:45:53.644Z,90.77
2018-12-16T01:46:53.598Z,90.63
2018-12-16T01:47:53.609Z,90.86
2018-12-16T01:48:53.613Z,90.91
2018-12-16T01:49:53.622Z,90.86
2018-12-16T01:50:53.628Z,91.05
2018-12-16T01:51:53.640Z,90.68
2018-12-16T01:52:53.646Z,91.24
2018-12-16T01:53:53.655Z,91.05
2018-12-16T01:54:53.662Z,90.86
2018-12-16T01:55:53.673Z,91.05
2018-12-16T01:56:53.690Z,91.05
2018-12-16T01:57:53.688Z,91.24
2018-12-16T01:58:53.700Z,91.15
2018-12-16T01:59:53.710Z,90.58
2018-12-16T02:00:53.711Z,90.96
2018-12-16T02:01:53.717Z,90.58
2018-12-16T02:02:53.823Z,90.49
2018-12-16T02:03:53.735Z,91.24
2018-12-16T02:04:53.742Z,90.77
2018-12-16T02:05:53.747Z,90.86
2018-12-16T02:06:53.757Z,90.39
2018-12-16T02:07:53.763Z,90.39
2018-12-16T02:08:53.773Z,90.39
2018-12-16T02:09:53.777Z,90.49
2018-12-16T02:10:53.791Z,90.39
2018-12-16T02:11:53.799Z,90.01
2018-12-16T02:12:53.803Z,90.39
2018-12-16T02:13:53.808Z,90.30
2018-12-16T02:14:53.819Z,90.86
2018-12-16T02:15:53.833Z,90.96
2018-12-16T02:16:53.887Z,90.49
2018-12-16T02:17:53.841Z,90.39
2018-12-16T02:18:53.849Z,90.11
2018-12-16T02:19:53.859Z,90.68
2018-12-16T02:20:53.872Z,89.83
2018-12-16T02:21:53.878Z,89.83
2018-12-16T02:22:56.923Z,90.11
2018-12-16T02:23:53.891Z,89.83
2018-12-16T02:24:53.896Z,89.83
2018-12-16T02:25:53.908Z,90.20
2018-12-16T02:26:53.912Z,90.20
2018-12-16T02:27:53.922Z,89.64
2018-12-16T02:28:53.930Z,90.01
2018-12-16T02:29:53.937Z,89.92
2018-12-16T02:30:54.210Z,89.83
2018-12-16T02:31:53.964Z,90.01
2018-12-16T02:32:54.063Z,90.30
2018-12-16T02:33:53.967Z,89.73
2018-12-16T02:34:53.973Z,90.11
2018-12-16T02:35:53.988Z,90.39
2018-12-16T02:36:53.994Z,90.39
2018-12-16T02:37:54.008Z,90.39
2018-12-16T02:38:54.006Z,90.39
2018-12-16T02:39:54.013Z,90.39
2018-12-16T02:40:54.035Z,90.68
2018-12-16T02:41:54.038Z,90.20
2018-12-16T02:42:54.046Z,90.30
2018-12-16T02:43:54.045Z,90.58
2018-12-16T02:44:54.058Z,90.39
2018-12-16T02:45:54.064Z,90.68
2018-12-16T02:46:54.076Z,90.30
2018-12-16T02:47:54.079Z,90.20
2018-12-16T02:48:54.086Z,89.73
2018-12-16T02:49:54.093Z,90.39
2018-12-16T02:50:54.102Z,90.01
2018-12-16T02:51:54.109Z,89.92
2018-12-16T02:52:54.117Z,89.92
2018-12-16T02:53:54.325Z,89.92
2018-12-16T02:54:54.130Z,90.39
2018-12-16T02:55:54.139Z,90.30
2018-12-16T02:56:54.164Z,89.83
2018-12-16T02:57:54.155Z,89.64
2018-12-16T02:58:54.165Z,90.01
2018-12-16T02:59:54.171Z,90.01
2018-12-16T03:00:54.180Z,90.20
2018-12-16T03:01:54.188Z,89.92
2018-12-16T03:02:54.200Z,89.92
2018-12-16T03:03:54.203Z,90.49
2018-12-16T03:04:54.213Z,90.49
2018-12-16T03:05:54.225Z,90.01
2018-12-16T03:06:54.225Z,90.30
2018-12-16T03:07:54.237Z,90.11
2018-12-16T03:08:54.241Z,89.83
2018-12-16T03:09:54.250Z,90.01
2018-12-16T03:10:54.267Z,90.01
2018-12-16T03:11:54.267Z,89.73
2018-12-16T03:12:54.273Z,89.36
2018-12-16T03:13:54.327Z,90.11
2018-12-16T03:15:54.298Z,89.83
2018-12-16T03:16:54.306Z,89.92
2018-12-16T03:17:54.319Z,89.73
2018-12-16T03:18:54.328Z,89.73
2018-12-16T03:19:54.330Z,89.26
2018-12-16T03:20:54.337Z,89.36
2018-12-16T03:21:54.348Z,89.36
2018-12-16T03:22:54.354Z,89.36
2018-12-16T03:23:54.368Z,90.01
2018-12-16T03:24:54.389Z,89.73
2018-12-16T03:25:54.378Z,89.54
2018-12-16T03:26:54.405Z,89.45
2018-12-16T03:27:54.396Z,89.07
2018-12-16T03:28:54.401Z,89.26
2018-12-16T03:29:54.408Z,89.17
2018-12-16T03:30:54.424Z,88.79
2018-12-16T03:31:54.438Z,88.98
2018-12-16T03:32:54.441Z,88.88
2018-12-16T03:33:54.441Z,88.60
2018-12-16T03:34:54.455Z,88.60
2018-12-16T03:35:54.456Z,88.41
2018-12-16T03:36:54.463Z,89.17
2018-12-16T03:37:54.475Z,88.88
2018-12-16T03:38:54.478Z,89.17
2018-12-16T03:39:54.495Z,88.41
2018-12-16T03:40:54.498Z,88.88
2018-12-16T03:41:54.519Z,88.88
2018-12-16T03:42:54.602Z,88.98
2018-12-16T03:43:54.520Z,88.79
2018-12-16T03:44:54.530Z,88.79
2018-12-16T03:45:54.541Z,88.50
2018-12-16T03:46:54.548Z,88.60
2018-12-16T03:47:54.560Z,88.50
2018-12-16T03:48:54.563Z,88.50
2018-12-16T03:49:54.568Z,88.60
2018-12-16T03:50:54.581Z,88.41
2018-12-16T03:51:54.588Z,87.93
2018-12-16T03:52:54.595Z,88.03
2018-12-16T03:53:54.600Z,88.50
2018-12-16T03:54:54.608Z,88.60
2018-12-16T03:55:54.621Z,88.31
2018-12-16T03:56:54.632Z,88.12
2018-12-16T03:57:54.635Z,88.12
2018-12-16T03:58:54.640Z,87.84
2018-12-16T03:59:54.649Z,87.93
2018-12-16T04:00:54.662Z,88.03
2018-12-16T04:01:54.667Z,88.12
2018-12-16T04:02:54.674Z,87.93
2018-12-16T04:03:54.687Z,87.65
2018-12-16T04:04:54.694Z,87.74
2018-12-16T04:05:54.700Z,88.03
2018-12-16T04:06:54.709Z,88.12
2018-12-16T04:07:54.719Z,87.74
2018-12-16T04:08:54.725Z,88.31
2018-12-16T04:09:54.730Z,88.22
2018-12-16T04:10:54.743Z,88.41
2018-12-16T04:11:55.098Z,88.79
2018-12-16T04:12:54.758Z,88.69
2018-12-16T04:13:54.964Z,88.60
2018-12-16T04:14:54.777Z,88.60
2018-12-16T04:15:54.779Z,88.79
2018-12-16T04:16:54.792Z,88.69
2018-12-16T04:17:54.797Z,88.22
2018-12-16T04:18:54.807Z,87.74
2018-12-16T04:19:54.810Z,88.12
2018-12-16T04:20:54.818Z,88.12
2018-12-16T04:21:54.886Z,88.03
2018-12-16T04:22:54.889Z,88.12
2018-12-16T04:23:54.845Z,87.93
2018-12-16T04:24:54.854Z,87.74
2018-12-16T04:25:55.062Z,88.22
2018-12-16T04:26:54.867Z,88.12
2018-12-16T04:27:54.877Z,88.03
2018-12-16T04:28:54.892Z,88.03
2018-12-16T04:29:54.896Z,88.03
2018-12-16T04:30:54.902Z,88.12
2018-12-16T04:31:55.116Z,88.22
2018-12-16T04:32:54.969Z,88.79
2018-12-16T04:33:54.928Z,87.93
2018-12-16T04:34:54.936Z,88.12
2018-12-16T04:35:54.947Z,88.12
2018-12-16T04:36:54.958Z,88.69
2018-12-16T04:37:54.958Z,88.60
2018-12-16T04:38:54.966Z,88.60
2018-12-16T04:39:54.977Z,88.60
2018-12-16T04:40:55.003Z,88.88
2018-12-16T04:41:54.993Z,89.17
2018-12-16T04:42:55.003Z,88.60
2018-12-16T04:43:55.007Z,88.88
2018-12-16T04:44:55.017Z,89.26
2018-12-16T04:45:55.027Z,89.07
2018-12-16T04:46:55.036Z,88.60
2018-12-16T04:47:55.120Z,88.45
2018-12-16T04:48:55.052Z,88.64
2018-12-16T04:49:55.059Z,88.50
2018-12-16T04:50:55.067Z,88.41
2018-12-16T04:51:55.073Z,88.93
2018-12-16T04:52:55.084Z,88.60
2018-12-16T04:53:55.096Z,89.21
2018-12-16T04:54:55.205Z,89.78
2018-12-16T04:55:55.110Z,89.40
2018-12-16T04:56:55.117Z,89.69
2018-12-16T04:57:55.126Z,89.12
2018-12-16T04:58:55.129Z,88.83
2018-12-16T04:59:55.137Z,89.26
2018-12-16T05:00:55.152Z,89.59
2018-12-16T05:01:55.158Z,90.06
2018-12-16T05:02:55.167Z,90.53
2018-12-16T05:03:55.239Z,90.44
2018-12-16T05:04:55.180Z,90.68
2018-12-16T05:05:55.191Z,91.77
2018-12-16T05:06:55.196Z,92.14
2018-12-16T05:07:55.209Z,92.29
2018-12-16T05:08:55.212Z,92.61
2018-12-16T05:09:55.221Z,92.52
2018-12-16T05:10:55.347Z,93.32
2018-12-16T05:11:55.242Z,93.80
2018-12-16T05:12:55.268Z,94.65
2018-12-16T05:13:55.258Z,95.31
2018-12-16T05:14:55.267Z,95.40
2018-12-16T05:15:55.279Z,96.92
2018-12-16T05:16:55.281Z,97.20
2018-12-16T05:17:55.352Z,97.58
2018-12-16T05:18:55.298Z,97.86
2018-12-16T05:19:55.360Z,98.52
2018-12-16T05:20:55.315Z,99.38
2018-12-16T05:21:55.325Z,99.57
2018-12-16T05:22:55.331Z,99.38
2018-12-16T05:23:55.341Z,99.00
2018-12-16T05:24:55.351Z,99.47
2018-12-16T05:25:55.359Z,99.00
2018-12-16T05:26:55.364Z,99.28
2018-12-16T05:27:55.371Z,99.09
2018-12-16T05:28:55.381Z,99.00
2018-12-16T05:29:55.387Z,99.99
2018-12-16T05:30:55.398Z,99.99
2018-12-16T05:31:55.407Z,99.99
2018-12-16T05:32:55.416Z,99.99
2018-12-16T05:33:55.420Z,99.99
2018-12-16T05:34:55.425Z,99.99
2018-12-16T05:35:55.440Z,99.99
2018-12-16T05:36:55.465Z,99.99
2018-12-16T05:37:55.458Z,99.99
2018-12-16T05:38:55.464Z,99.99
2018-12-16T05:39:55.472Z,99.99
2018-12-16T05:40:55.480Z,99.99
2018-12-16T05:41:55.487Z,99.99
2018-12-16T05:42:55.493Z,99.99
2018-12-16T05:43:55.505Z,99.99
2018-12-16T05:44:55.510Z,99.99
2018-12-16T05:45:55.523Z,99.99
2018-12-16T05:46:55.528Z,99.99
2018-12-16T05:47:55.538Z,99.99
2018-12-16T05:48:55.546Z,99.99
2018-12-16T05:50:55.910Z,99.99
2018-12-16T05:51:55.598Z,99.99
2018-12-16T05:52:55.575Z,99.99
2018-12-16T05:53:55.592Z,99.99
2018-12-16T05:54:55.594Z,99.99
2018-12-16T05:55:55.600Z,99.99
2018-12-16T05:56:55.608Z,99.99
2018-12-16T05:57:55.618Z,99.99
2018-12-16T05:58:55.627Z,99.99
2018-12-16T05:59:55.631Z,99.99
2018-12-16T06:00:55.638Z,99.99
2018-12-16T06:01:55.646Z,99.99
2018-12-16T06:03:56.050Z,99.99
2018-12-16T06:04:55.959Z,99.99
2018-12-16T06:05:55.679Z,99.99
2018-12-16T06:06:55.696Z,99.99
2018-12-16T06:07:55.694Z,99.99
2018-12-16T06:08:55.702Z,99.99
2018-12-16T06:09:55.712Z,99.99
2018-12-16T06:10:55.717Z,99.99
2018-12-16T06:11:55.728Z,99.99
2018-12-16T06:12:55.738Z,99.99
2018-12-16T06:13:55.747Z,99.99
2018-12-16T06:14:55.754Z,99.99
2018-12-16T06:15:55.761Z,99.99
2018-12-16T06:16:55.766Z,99.99
2018-12-16T06:17:55.784Z,99.99
2018-12-16T06:18:55.783Z,99.99
2018-12-16T06:19:55.798Z,99.99
2018-12-16T06:20:55.805Z,99.99
2018-12-16T06:21:55.810Z,99.99
2018-12-16T06:22:55.823Z,99.99
2018-12-16T06:23:56.002Z,99.99
2018-12-16T06:24:55.831Z,99.99
2018-12-16T06:25:55.837Z,99.99
2018-12-16T06:26:55.846Z,99.99
2018-12-16T06:27:55.852Z,99.99
2018-12-16T06:28:55.865Z,99.99
2018-12-16T06:29:55.871Z,99.99
2018-12-16T06:30:55.878Z,99.99
2018-12-16T06:31:55.886Z,99.99
2018-12-16T06:32:55.892Z,99.99
2018-12-16T06:33:55.900Z,99.99
2018-12-16T06:34:55.911Z,99.99
2018-12-16T06:35:55.917Z,99.99
2018-12-16T06:36:55.927Z,99.99
2018-12-16T06:37:55.940Z,99.99
2018-12-16T06:38:55.941Z,99.99
2018-12-16T06:39:55.947Z,99.99
2018-12-16T06:40:55.956Z,99.99
2018-12-16T06:41:55.967Z,99.99
2018-12-16T06:42:56.063Z,99.99
2018-12-16T06:43:55.980Z,99.99
2018-12-16T06:44:55.996Z,99.99
2018-12-16T06:45:55.997Z,99.99
2018-12-16T06:46:56.209Z,99.99
2018-12-16T06:47:56.018Z,99.99
2018-12-16T06:48:56.019Z,99.99
2018-12-16T06:49:56.030Z,99.99
2018-12-16T06:50:56.035Z,99.99
2018-12-16T06:51:56.044Z,99.99
2018-12-16T06:52:56.050Z,99.99
2018-12-16T06:54:02.132Z,99.99
2018-12-16T06:54:56.081Z,99.99
2018-12-16T06:55:56.276Z,99.99
2018-12-16T06:56:56.083Z,99.99
2018-12-16T06:57:56.092Z,99.99
2018-12-16T06:58:56.095Z,99.99
2018-12-16T06:59:56.105Z,99.99
2018-12-16T07:00:56.117Z,99.99
2018-12-16T07:01:56.125Z,99.99
2018-12-16T07:02:56.135Z,99.99
2018-12-16T07:03:56.136Z,99.99
2018-12-16T07:04:56.144Z,99.99
2018-12-16T07:05:56.158Z,99.99
2018-12-16T07:06:56.161Z,99.99
2018-12-16T07:07:56.168Z,99.99
2018-12-16T07:08:56.175Z,99.99
2018-12-16T07:09:56.185Z,99.99
2018-12-16T07:10:56.191Z,99.99
2018-12-16T07:11:56.207Z,99.99
2018-12-16T07:12:56.207Z,99.99
2018-12-16T07:13:56.216Z,99.99
2018-12-16T07:14:56.226Z,99.99
2018-12-16T07:15:56.234Z,99.99
2018-12-16T07:16:56.239Z,99.99
2018-12-16T07:17:56.249Z,99.99
2018-12-16T07:18:56.267Z,99.99
2018-12-16T07:19:56.276Z,99.99
2018-12-16T07:20:56.275Z,99.99
2018-12-16T07:21:56.286Z,99.99
2018-12-16T07:22:56.320Z,99.99
2018-12-16T07:23:56.315Z,99.99
2018-12-16T07:24:56.352Z,99.99
2018-12-16T07:25:56.327Z,99.99
2018-12-16T07:26:56.342Z,99.99
2018-12-16T07:27:56.325Z,99.99
2018-12-16T07:28:56.332Z,99.99
2018-12-16T07:29:56.343Z,99.99
2018-12-16T07:30:56.352Z,99.99
2018-12-16T07:31:56.474Z,99.99
2018-12-16T07:32:56.401Z,99.99
2018-12-16T07:33:56.374Z,99.99
2018-12-16T07:34:56.379Z,99.99
2018-12-16T07:35:56.387Z,99.99
2018-12-16T07:36:56.394Z,99.99
2018-12-16T07:37:56.436Z,99.99
2018-12-16T07:38:56.417Z,99.99
2018-12-16T07:39:56.422Z,99.99
2018-12-16T07:40:56.425Z,99.99
2018-12-16T07:41:56.489Z,99.99
2018-12-16T07:42:56.460Z,99.99
2018-12-16T07:43:56.457Z,99.99
2018-12-16T07:44:56.476Z,99.99
2018-12-16T07:45:56.471Z,99.99
2018-12-16T07:46:56.514Z,99.99
2018-12-16T07:47:56.485Z,99.99
2018-12-16T07:48:56.492Z,99.99
2018-12-16T07:49:56.505Z,99.99
2018-12-16T07:50:56.532Z,99.99
2018-12-16T07:51:56.519Z,99.99
2018-12-16T07:52:57.115Z,99.99
2018-12-16T07:53:56.534Z,99.99
2018-12-16T07:54:56.547Z,99.99
2018-12-16T07:55:56.679Z,99.99
2018-12-16T07:56:56.867Z,99.99
2018-12-16T07:57:56.565Z,99.99
2018-12-16T07:58:56.567Z,99.99
2018-12-16T07:59:56.578Z,99.99
2018-12-16T08:00:56.790Z,99.99
2018-12-16T08:01:56.631Z,99.99
2018-12-16T08:02:56.635Z,99.99
2018-12-16T08:03:56.632Z,99.99
2018-12-16T08:04:56.639Z,99.99
2018-12-16T08:05:56.625Z,99.99
2018-12-16T08:06:56.638Z,99.99
2018-12-16T08:07:56.843Z,99.99
2018-12-16T08:08:56.653Z,99.99
2018-12-16T08:09:56.659Z,99.99
2018-12-16T08:10:56.667Z,99.99
2018-12-16T08:11:56.676Z,99.99
2018-12-16T08:12:56.685Z,99.99
2018-12-16T08:13:56.692Z,99.99
2018-12-16T08:14:56.702Z,99.99
2018-12-16T08:15:56.698Z,99.99
2018-12-16T08:16:56.711Z,99.99
2018-12-16T08:17:56.712Z,99.99
2018-12-16T08:18:56.723Z,99.99
2018-12-16T08:19:56.727Z,99.99
2018-12-16T08:20:56.739Z,99.99
2018-12-16T08:21:56.748Z,99.99
2018-12-16T08:22:56.757Z,99.99
2018-12-16T08:23:56.763Z,99.99
2018-12-16T08:24:56.771Z,99.99
2018-12-16T08:25:56.779Z,99.99
2018-12-16T08:26:56.786Z,99.99
2018-12-16T08:27:56.793Z,99.99
2018-12-16T08:28:56.803Z,99.99
2018-12-16T08:29:56.816Z,99.99
2018-12-16T08:30:56.819Z,99.99
2018-12-16T08:31:56.823Z,99.99
2018-12-16T08:32:56.834Z,99.99
2018-12-16T08:33:56.844Z,99.99
2018-12-16T08:34:56.955Z,99.99
2018-12-16T08:35:56.864Z,99.99
2018-12-16T08:36:56.865Z,99.99
2018-12-16T08:37:56.872Z,99.99
2018-12-16T08:38:56.882Z,99.99
2018-12-16T08:39:56.890Z,99.99
2018-12-16T08:40:56.899Z,99.99
2018-12-16T08:41:56.909Z,99.99
2018-12-16T08:42:56.961Z,99.99
2018-12-16T08:43:56.973Z,99.99
2018-12-16T08:44:57.045Z,99.99
2018-12-16T08:45:56.949Z,99.99
2018-12-16T08:46:57.025Z,99.99
2018-12-16T08:47:56.970Z,99.99
2018-12-16T08:48:56.966Z,99.99
2018-12-16T08:49:56.973Z,99.99
2018-12-16T08:50:56.978Z,99.99
2018-12-16T08:51:56.987Z,99.99
2018-12-16T08:52:56.995Z,99.99
2018-12-16T08:53:57.007Z,99.99
2018-12-16T08:54:57.016Z,99.99
2018-12-16T08:55:57.953Z,99.99
2018-12-16T08:56:57.031Z,99.99
2018-12-16T08:57:57.036Z,99.99
2018-12-16T08:58:57.044Z,99.99
2018-12-16T08:59:57.059Z,99.99
2018-12-16T09:00:57.061Z,99.99
2018-12-16T09:01:57.068Z,99.99
2018-12-16T09:02:57.077Z,99.99
2018-12-16T09:03:57.084Z,99.99
2018-12-16T09:04:57.096Z,99.99
2018-12-16T09:05:57.111Z,99.99
2018-12-16T09:06:57.111Z,99.99
2018-12-16T09:07:57.119Z,99.99
2018-12-16T09:08:57.131Z,99.99
2018-12-16T09:09:57.137Z,99.99
2018-12-16T09:10:57.140Z,99.99
2018-12-16T09:11:57.161Z,99.99
2018-12-16T09:12:57.160Z,99.99
2018-12-16T09:13:57.171Z,99.99
2018-12-16T09:14:57.407Z,99.99
2018-12-16T09:15:57.193Z,99.99
2018-12-16T09:16:57.193Z,99.99
2018-12-16T09:17:57.205Z,99.99
2018-12-16T09:18:57.218Z,99.99
2018-12-16T09:19:57.222Z,99.99
2018-12-16T09:20:57.227Z,99.99
2018-12-16T09:21:57.236Z,99.99
2018-12-16T09:22:57.242Z,99.99
2018-12-16T09:23:57.247Z,99.99
2018-12-16T09:24:57.260Z,99.99
2018-12-16T09:25:57.265Z,99.99
2018-12-16T09:26:57.274Z,99.99
2018-12-16T09:27:57.283Z,99.99
2018-12-16T09:28:57.294Z,99.99
2018-12-16T09:29:57.326Z,99.99
2018-12-16T09:30:58.198Z,99.99
2018-12-16T09:31:57.319Z,99.99
2018-12-16T09:32:57.329Z,99.99
2018-12-16T09:33:57.331Z,99.99
2018-12-16T09:34:57.341Z,99.99
2018-12-16T09:35:57.348Z,99.99
2018-12-16T09:36:57.360Z,99.99
2018-12-16T09:37:57.817Z,99.99
2018-12-16T09:38:57.371Z,99.99
2018-12-16T09:39:57.386Z,99.99
2018-12-16T09:40:57.392Z,99.99
2018-12-16T09:41:57.887Z,99.99
2018-12-16T09:42:57.420Z,99.99
2018-12-16T09:43:57.563Z,99.99
2018-12-16T09:44:57.427Z,99.99
2018-12-16T09:45:57.431Z,99.99
2018-12-16T09:46:57.447Z,99.99
2018-12-16T09:47:57.453Z,99.99
2018-12-16T09:48:57.529Z,99.99
2018-12-16T09:49:57.465Z,99.99
2018-12-16T09:50:57.472Z,99.99
2018-12-16T09:51:57.485Z,99.99
2018-12-16T09:52:57.497Z,99.99
2018-12-16T09:53:57.499Z,99.99
2018-12-16T09:54:57.506Z,99.99
2018-12-16T09:55:57.518Z,99.99
2018-12-16T09:56:57.731Z,99.99
2018-12-16T09:57:57.533Z,99.99
2018-12-16T09:58:57.551Z,99.99
2018-12-16T09:59:57.551Z,99.99
2018-12-16T10:00:57.557Z,99.99
2018-12-16T10:01:57.570Z,99.99
2018-12-16T10:02:57.578Z,99.99
2018-12-16T10:03:57.586Z,99.99
2018-12-16T10:04:57.794Z,99.99
2018-12-16T10:05:57.603Z,99.99
2018-12-16T10:06:57.608Z,99.99
2018-12-16T10:07:57.622Z,99.99
2018-12-16T10:08:57.630Z,99.99
2018-12-16T10:09:57.700Z,99.99
2018-12-16T10:10:57.644Z,99.99
2018-12-16T10:11:57.656Z,99.99
2018-12-16T10:12:57.672Z,99.99
2018-12-16T10:13:57.671Z,99.99
2018-12-16T10:14:57.680Z,99.99
2018-12-16T10:15:57.687Z,99.99
2018-12-16T10:16:57.696Z,99.99
2018-12-16T10:17:57.712Z,99.99
2018-12-16T10:18:57.715Z,99.99
2018-12-16T10:19:57.724Z,99.99
2018-12-16T10:20:57.874Z,99.99
2018-12-16T10:21:57.738Z,99.99
2018-12-16T10:22:57.749Z,99.99
2018-12-16T10:23:57.758Z,99.99
2018-12-16T10:24:57.771Z,99.99
2018-12-16T10:25:57.776Z,99.99
2018-12-16T10:26:57.871Z,99.99
2018-12-16T10:27:58.260Z,99.99
2018-12-16T10:28:57.805Z,99.99
2018-12-16T10:29:57.810Z,99.99
2018-12-16T10:30:57.817Z,99.99
2018-12-16T10:31:57.828Z,99.99
2018-12-16T10:32:57.837Z,99.99
2018-12-16T10:33:57.849Z,99.99
2018-12-16T10:34:57.855Z,99.99
2018-12-16T10:35:57.861Z,99.99
2018-12-16T10:36:57.872Z,99.99
2018-12-16T10:37:57.886Z,99.99
2018-12-16T10:38:57.887Z,99.99
2018-12-16T10:39:57.899Z,99.99
2018-12-16T10:40:57.904Z,99.99
2018-12-16T10:41:57.919Z,99.99
2018-12-16T10:42:57.921Z,99.99
2018-12-16T10:43:57.931Z,99.99
2018-12-16T10:44:57.947Z,99.99
2018-12-16T10:45:57.952Z,99.99
2018-12-16T10:46:58.206Z,99.99
2018-12-16T10:47:57.966Z,99.99
2018-12-16T10:49:04.566Z,99.99
2018-12-16T10:49:57.986Z,99.99
2018-12-16T10:50:58.005Z,99.99
2018-12-16T10:51:58.000Z,99.99
2018-12-16T10:52:58.011Z,99.99
2018-12-16T10:53:58.021Z,99.99
2018-12-16T10:54:58.629Z,99.99
2018-12-16T10:55:58.038Z,99.99
2018-12-16T10:56:58.050Z,99.99
2018-12-16T10:57:58.058Z,99.99
2018-12-16T10:58:58.062Z,99.99
2018-12-16T10:59:58.072Z,99.99
2018-12-16T11:00:58.096Z,99.99
2018-12-16T11:01:58.092Z,99.99
2018-12-16T11:02:58.100Z,99.99
2018-12-16T11:03:58.126Z,99.99
2018-12-16T11:04:58.115Z,99.99
2018-12-16T11:05:58.330Z,99.99
2018-12-16T11:06:58.131Z,99.99
2018-12-16T11:07:58.143Z,99.99
2018-12-16T11:08:58.151Z,99.99
2018-12-16T11:09:58.162Z,99.99
2018-12-16T11:10:58.170Z,99.99
2018-12-16T11:11:58.178Z,99.99
2018-12-16T11:12:58.186Z,99.99
2018-12-16T11:13:58.193Z,99.99
2018-12-16T11:14:58.204Z,99.99
2018-12-16T11:15:58.214Z,99.99
2018-12-16T11:16:58.222Z,99.99
2018-12-16T11:17:58.232Z,99.99
2018-12-16T11:18:58.260Z,99.99
2018-12-16T11:19:58.251Z,99.99
2018-12-16T11:20:58.256Z,99.99
2018-12-16T11:21:58.271Z,99.99
2018-12-16T11:22:58.329Z,99.99
2018-12-16T11:23:58.284Z,99.99
2018-12-16T11:25:05.453Z,99.99
2018-12-16T11:25:58.301Z,99.99
2018-12-16T11:26:58.311Z,99.99
2018-12-16T11:27:58.325Z,99.99
2018-12-16T11:28:58.331Z,99.99
2018-12-16T11:29:58.340Z,99.99
2018-12-16T11:30:58.345Z,99.99
2018-12-16T11:31:58.363Z,99.99
2018-12-16T11:32:58.366Z,99.99
2018-12-16T11:33:58.377Z,99.99
2018-12-16T11:34:58.398Z,99.99
2018-12-16T11:35:58.390Z,99.99
2018-12-16T11:36:58.400Z,99.99
2018-12-16T11:37:59.731Z,99.99
2018-12-16T11:38:58.418Z,99.99
2018-12-16T11:39:58.423Z,99.99
2018-12-16T11:40:58.460Z,99.99
2018-12-16T11:41:58.445Z,99.99
2018-12-16T11:42:58.453Z,99.99
2018-12-16T11:43:58.462Z,99.99
2018-12-16T11:44:58.492Z,99.99
2018-12-16T11:45:58.481Z,99.99
2018-12-16T11:46:58.485Z,99.99
2018-12-16T11:47:58.502Z,99.99
2018-12-16T11:48:58.507Z,99.99
2018-12-16T11:49:58.524Z,99.99
2018-12-16T11:50:58.523Z,99.99
2018-12-16T11:51:58.535Z,99.99
2018-12-16T11:52:58.541Z,99.99
2018-12-16T11:53:58.552Z,99.99
2018-12-16T11:54:58.557Z,99.99
2018-12-16T11:55:58.571Z,99.99
2018-12-16T11:56:58.740Z,99.99
2018-12-16T11:57:58.657Z,99.99
2018-12-16T11:58:58.593Z,99.99
2018-12-16T11:59:58.603Z,99.99
2018-12-16T12:00:58.618Z,99.99
2018-12-16T12:01:58.625Z,99.99
2018-12-16T12:02:58.629Z,99.99
2018-12-16T12:03:58.641Z,99.99
2018-12-16T12:04:58.647Z,99.99
2018-12-16T12:05:58.659Z,99.99
2018-12-16T12:06:58.672Z,99.99
2018-12-16T12:07:58.681Z,99.99
2018-12-16T12:08:58.682Z,99.99
2018-12-16T12:09:58.691Z,99.99
2018-12-16T12:10:58.706Z,99.99
2018-12-16T12:11:58.708Z,99.99
2018-12-16T12:12:58.725Z,99.99
2018-12-16T12:13:58.728Z,99.99
2018-12-16T12:14:58.736Z,99.99
2018-12-16T12:15:58.905Z,99.99
2018-12-16T12:16:58.754Z,99.99
2018-12-16T12:17:58.761Z,99.99
2018-12-16T12:18:58.769Z,99.99
2018-12-16T12:19:58.784Z,99.99
2018-12-16T12:20:58.988Z,99.99
2018-12-16T12:22:04.394Z,99.99
2018-12-16T12:22:58.804Z,99.99
2018-12-16T12:23:58.813Z,99.99
2018-12-16T12:24:58.825Z,99.99
2018-12-16T12:25:58.833Z,99.99
2018-12-16T12:26:58.844Z,99.99
2018-12-16T12:27:58.851Z,99.99
2018-12-16T12:28:58.859Z,99.99
2018-12-16T12:29:58.871Z,99.99
2018-12-16T12:30:58.875Z,99.99
2018-12-16T12:31:58.886Z,99.99
2018-12-16T12:32:58.894Z,99.99
2018-12-16T12:33:58.905Z,99.99
2018-12-16T12:34:58.914Z,99.99
2018-12-16T12:35:58.925Z,99.99
2018-12-16T12:36:58.944Z,99.99
2018-12-16T12:37:58.942Z,99.99
2018-12-16T12:38:58.949Z,99.99
2018-12-16T12:39:58.961Z,99.99
2018-12-16T12:40:58.970Z,99.99
2018-12-16T12:41:58.977Z,99.99
2018-12-16T12:42:58.988Z,99.99
2018-12-16T12:43:58.996Z,99.99
2018-12-16T12:44:59.002Z,99.99
2018-12-16T12:45:59.111Z,99.99
2018-12-16T12:46:59.028Z,99.99
2018-12-16T12:47:59.034Z,99.99
2018-12-16T12:48:59.039Z,99.99
2018-12-16T12:49:59.057Z,99.99
2018-12-16T12:50:59.061Z,99.99
2018-12-16T12:51:59.143Z,99.99
2018-12-16T12:52:59.079Z,99.99
2018-12-16T12:53:59.087Z,99.99
2018-12-16T12:54:59.099Z,99.99
2018-12-16T12:55:59.102Z,99.99